sensor_id;sensor_type;location;lat;lon;timestamp;P1;durP1;ratioP1;P2;durP2;ratioP2
9496;SDS011;4786;51.270;4.456;2024-02-21T00:02:21;21.53;;;9.00;;
9496;SDS011;4786;51.270;4.456;2024-02-21T00:04:47;20.50;;;8.80;;
9496;SDS011;4786;51.270;4.456;2024-02-21T00:07:12;21.63;;;9.40;;
9496;SDS011;4786;51.270;4.456;2024-02-21T00:09:38;25.30;;;9.77;;
9496;SDS011;4786;51.270;4.456;2024-02-21T00:12:05;19.80;;;10.27;;
9496;SDS011;4786;51.270;4.456;2024-02-21T00:14:31;20.03;;;9.63;;
9496;SDS011;4786;51.270;4.456;2024-02-21T00:16:57;20.50;;;9.23;;
9496;SDS011;4786;51.270;4.456;2024-02-21T00:19:23;22.80;;;9.10;;
9496;SDS011;4786;51.270;4.456;2024-02-21T00:21:48;18.93;;;8.80;;
9496;SDS011;4786;51.270;4.456;2024-02-21T00:24:14;17.37;;;8.80;;
9496;SDS011;4786;51.270;4.456;2024-02-21T00:26:40;14.83;;;7.70;;
9496;SDS011;4786;51.270;4.456;2024-02-21T00:29:06;13.30;;;7.63;;
9496;SDS011;4786;51.270;4.456;2024-02-21T00:31:31;13.40;;;7.50;;
9496;SDS011;4786;51.270;4.456;2024-02-21T00:33:57;18.47;;;8.17;;
9496;SDS011;4786;51.270;4.456;2024-02-21T00:36:23;19.23;;;8.57;;
9496;SDS011;4786;51.270;4.456;2024-02-21T00:38:49;16.90;;;7.50;;
9496;SDS011;4786;51.270;4.456;2024-02-21T00:41:15;15.97;;;7.43;;
9496;SDS011;4786;51.270;4.456;2024-02-21T00:43:41;12.70;;;7.00;;
9496;SDS011;4786;51.270;4.456;2024-02-21T00:46:07;15.27;;;7.27;;
9496;SDS011;4786;51.270;4.456;2024-02-21T00:48:34;14.90;;;7.30;;
9496;SDS011;4786;51.270;4.456;2024-02-21T00:50:59;19.67;;;7.90;;
9496;SDS011;4786;51.270;4.456;2024-02-21T00:53:25;16.07;;;7.00;;
9496;SDS011;4786;51.270;4.456;2024-02-21T00:55:51;14.07;;;6.73;;
9496;SDS011;4786;51.270;4.456;2024-02-21T00:58:17;13.17;;;6.90;;
9496;SDS011;4786;51.270;4.456;2024-02-21T01:00:43;12.07;;;5.90;;
9496;SDS011;4786;51.270;4.456;2024-02-21T01:03:08;15.17;;;6.80;;
9496;SDS011;4786;51.270;4.456;2024-02-21T01:05:34;12.90;;;6.23;;
9496;SDS011;4786;51.270;4.456;2024-02-21T01:08:01;15.07;;;6.97;;
9496;SDS011;4786;51.270;4.456;2024-02-21T01:10:27;15.23;;;6.60;;
9496;SDS011;4786;51.270;4.456;2024-02-21T01:12:53;12.03;;;6.40;;
9496;SDS011;4786;51.270;4.456;2024-02-21T01:15:19;14.30;;;6.43;;
9496;SDS011;4786;51.270;4.456;2024-02-21T01:17:45;11.53;;;6.50;;
9496;SDS011;4786;51.270;4.456;2024-02-21T01:20:11;10.83;;;5.87;;
9496;SDS011;4786;51.270;4.456;2024-02-21T01:22:37;12.47;;;5.90;;
9496;SDS011;4786;51.270;4.456;2024-02-21T01:25:04;15.40;;;6.00;;
9496;SDS011;4786;51.270;4.456;2024-02-21T01:27:30;11.30;;;6.10;;
9496;SDS011;4786;51.270;4.456;2024-02-21T01:29:56;12.53;;;5.53;;
9496;SDS011;4786;51.270;4.456;2024-02-21T01:32:22;12.77;;;5.40;;
9496;SDS011;4786;51.270;4.456;2024-02-21T01:34:49;11.50;;;6.03;;
9496;SDS011;4786;51.270;4.456;2024-02-21T01:37:16;11.33;;;5.90;;
9496;SDS011;4786;51.270;4.456;2024-02-21T01:39:41;13.40;;;5.67;;
9496;SDS011;4786;51.270;4.456;2024-02-21T01:42:07;15.10;;;6.10;;
9496;SDS011;4786;51.270;4.456;2024-02-21T01:44:34;14.13;;;6.23;;
9496;SDS011;4786;51.270;4.456;2024-02-21T01:47:00;14.10;;;6.30;;
9496;SDS011;4786;51.270;4.456;2024-02-21T01:49:27;10.70;;;5.50;;
9496;SDS011;4786;51.270;4.456;2024-02-21T01:51:53;13.53;;;6.00;;
9496;SDS011;4786;51.270;4.456;2024-02-21T01:54:20;10.53;;;5.77;;
9496;SDS011;4786;51.270;4.456;2024-02-21T01:56:46;18.03;;;6.50;;
9496;SDS011;4786;51.270;4.456;2024-02-21T01:59:13;9.95;;;6.40;;
9496;SDS011;4786;51.270;4.456;2024-02-21T02:01:40;11.20;;;6.37;;
9496;SDS011;4786;51.270;4.456;2024-02-21T02:04:07;13.57;;;6.40;;
9496;SDS011;4786;51.270;4.456;2024-02-21T02:06:34;14.30;;;6.53;;
9496;SDS011;4786;51.270;4.456;2024-02-21T02:09:00;16.17;;;7.00;;
9496;SDS011;4786;51.270;4.456;2024-02-21T02:11:26;16.40;;;7.10;;
9496;SDS011;4786;51.270;4.456;2024-02-21T02:13:52;15.57;;;8.13;;
9496;SDS011;4786;51.270;4.456;2024-02-21T02:16:18;14.67;;;7.70;;
9496;SDS011;4786;51.270;4.456;2024-02-21T02:18:44;17.07;;;8.63;;
9496;SDS011;4786;51.270;4.456;2024-02-21T02:21:14;16.50;;;8.20;;
9496;SDS011;4786;51.270;4.456;2024-02-21T02:23:51;16.50;;;8.53;;
9496;SDS011;4786;51.270;4.456;2024-02-21T02:26:18;21.90;;;9.00;;
9496;SDS011;4786;51.270;4.456;2024-02-21T02:28:43;17.57;;;8.83;;
9496;SDS011;4786;51.270;4.456;2024-02-21T02:31:09;17.97;;;8.90;;
9496;SDS011;4786;51.270;4.456;2024-02-21T02:33:35;18.50;;;9.00;;
9496;SDS011;4786;51.270;4.456;2024-02-21T02:36:00;21.47;;;10.27;;
9496;SDS011;4786;51.270;4.456;2024-02-21T02:38:26;17.70;;;8.90;;
9496;SDS011;4786;51.270;4.456;2024-02-21T02:40:52;18.70;;;9.20;;
9496;SDS011;4786;51.270;4.456;2024-02-21T02:43:18;19.03;;;9.63;;
9496;SDS011;4786;51.270;4.456;2024-02-21T02:45:43;18.97;;;9.33;;
9496;SDS011;4786;51.270;4.456;2024-02-21T02:48:09;16.70;;;9.07;;
9496;SDS011;4786;51.270;4.456;2024-02-21T02:50:34;23.73;;;9.90;;
9496;SDS011;4786;51.270;4.456;2024-02-21T02:53:00;18.47;;;9.80;;
9496;SDS011;4786;51.270;4.456;2024-02-21T02:55:27;19.87;;;10.00;;
9496;SDS011;4786;51.270;4.456;2024-02-21T02:57:52;19.17;;;9.30;;
9496;SDS011;4786;51.270;4.456;2024-02-21T03:00:18;22.97;;;9.50;;
9496;SDS011;4786;51.270;4.456;2024-02-21T03:02:45;22.93;;;9.70;;
9496;SDS011;4786;51.270;4.456;2024-02-21T03:05:12;17.60;;;9.57;;
9496;SDS011;4786;51.270;4.456;2024-02-21T03:07:40;17.80;;;9.23;;
9496;SDS011;4786;51.270;4.456;2024-02-21T03:10:07;23.70;;;9.90;;
9496;SDS011;4786;51.270;4.456;2024-02-21T03:12:34;21.60;;;9.80;;
9496;SDS011;4786;51.270;4.456;2024-02-21T03:15:00;22.53;;;10.17;;
9496;SDS011;4786;51.270;4.456;2024-02-21T03:17:26;18.17;;;9.07;;
9496;SDS011;4786;51.270;4.456;2024-02-21T03:19:53;18.03;;;8.70;;
9496;SDS011;4786;51.270;4.456;2024-02-21T03:22:20;18.00;;;9.20;;
9496;SDS011;4786;51.270;4.456;2024-02-21T03:24:47;18.37;;;8.50;;
9496;SDS011;4786;51.270;4.456;2024-02-21T03:27:12;22.30;;;9.97;;
9496;SDS011;4786;51.270;4.456;2024-02-21T03:29:38;18.53;;;9.60;;
9496;SDS011;4786;51.270;4.456;2024-02-21T03:32:04;19.37;;;10.03;;
9496;SDS011;4786;51.270;4.456;2024-02-21T03:34:31;18.50;;;9.97;;
9496;SDS011;4786;51.270;4.456;2024-02-21T03:36:56;18.47;;;10.63;;
9496;SDS011;4786;51.270;4.456;2024-02-21T03:39:23;18.03;;;9.57;;
9496;SDS011;4786;51.270;4.456;2024-02-21T03:41:49;18.87;;;9.77;;
9496;SDS011;4786;51.270;4.456;2024-02-21T03:44:15;20.93;;;9.60;;
9496;SDS011;4786;51.270;4.456;2024-02-21T03:46:41;18.97;;;9.93;;
9496;SDS011;4786;51.270;4.456;2024-02-21T03:49:07;22.33;;;11.03;;
9496;SDS011;4786;51.270;4.456;2024-02-21T03:51:33;19.73;;;10.00;;
9496;SDS011;4786;51.270;4.456;2024-02-21T03:53:59;21.07;;;9.63;;
9496;SDS011;4786;51.270;4.456;2024-02-21T03:56:24;15.70;;;10.10;;
9496;SDS011;4786;51.270;4.456;2024-02-21T03:58:50;17.83;;;10.00;;
9496;SDS011;4786;51.270;4.456;2024-02-21T04:01:16;19.00;;;9.47;;
9496;SDS011;4786;51.270;4.456;2024-02-21T04:03:43;20.03;;;10.33;;
9496;SDS011;4786;51.270;4.456;2024-02-21T04:06:09;18.10;;;9.73;;
9496;SDS011;4786;51.270;4.456;2024-02-21T04:08:35;22.43;;;9.80;;
9496;SDS011;4786;51.270;4.456;2024-02-21T04:11:01;16.50;;;9.53;;
9496;SDS011;4786;51.270;4.456;2024-02-21T04:13:27;18.23;;;9.87;;
9496;SDS011;4786;51.270;4.456;2024-02-21T04:15:53;17.47;;;9.33;;
9496;SDS011;4786;51.270;4.456;2024-02-21T04:18:19;19.70;;;9.97;;
9496;SDS011;4786;51.270;4.456;2024-02-21T04:20:44;16.70;;;9.67;;
9496;SDS011;4786;51.270;4.456;2024-02-21T04:23:10;20.43;;;9.53;;
9496;SDS011;4786;51.270;4.456;2024-02-21T04:25:36;15.27;;;9.50;;
9496;SDS011;4786;51.270;4.456;2024-02-21T04:28:02;16.87;;;9.73;;
9496;SDS011;4786;51.270;4.456;2024-02-21T04:30:28;16.77;;;9.53;;
9496;SDS011;4786;51.270;4.456;2024-02-21T04:32:54;22.93;;;9.87;;
9496;SDS011;4786;51.270;4.456;2024-02-21T04:35:20;16.73;;;9.23;;
9496;SDS011;4786;51.270;4.456;2024-02-21T04:37:45;14.80;;;8.87;;
9496;SDS011;4786;51.270;4.456;2024-02-21T04:40:11;19.53;;;9.30;;
9496;SDS011;4786;51.270;4.456;2024-02-21T04:42:38;15.57;;;8.83;;
9496;SDS011;4786;51.270;4.456;2024-02-21T04:45:04;17.93;;;9.80;;
9496;SDS011;4786;51.270;4.456;2024-02-21T04:47:30;17.27;;;9.37;;
9496;SDS011;4786;51.270;4.456;2024-02-21T04:49:56;15.20;;;8.40;;
9496;SDS011;4786;51.270;4.456;2024-02-21T04:52:22;16.27;;;9.83;;
9496;SDS011;4786;51.270;4.456;2024-02-21T04:54:48;15.10;;;8.90;;
9496;SDS011;4786;51.270;4.456;2024-02-21T04:57:13;18.60;;;9.20;;
9496;SDS011;4786;51.270;4.456;2024-02-21T04:59:43;15.17;;;8.47;;
9496;SDS011;4786;51.270;4.456;2024-02-21T05:02:09;16.90;;;9.83;;
9496;SDS011;4786;51.270;4.456;2024-02-21T05:04:36;16.60;;;8.90;;
9496;SDS011;4786;51.270;4.456;2024-02-21T05:07:03;19.40;;;9.17;;
9496;SDS011;4786;51.270;4.456;2024-02-21T05:09:29;14.07;;;9.20;;
9496;SDS011;4786;51.270;4.456;2024-02-21T05:11:55;16.90;;;8.67;;
9496;SDS011;4786;51.270;4.456;2024-02-21T05:14:23;17.60;;;9.73;;
9496;SDS011;4786;51.270;4.456;2024-02-21T05:16:50;15.40;;;8.70;;
9496;SDS011;4786;51.270;4.456;2024-02-21T05:19:16;20.07;;;9.00;;
9496;SDS011;4786;51.270;4.456;2024-02-21T05:21:41;15.50;;;9.47;;
9496;SDS011;4786;51.270;4.456;2024-02-21T05:24:07;14.10;;;8.90;;
9496;SDS011;4786;51.270;4.456;2024-02-21T05:26:33;14.77;;;8.43;;
9496;SDS011;4786;51.270;4.456;2024-02-21T05:28:58;17.13;;;8.77;;
9496;SDS011;4786;51.270;4.456;2024-02-21T05:31:24;15.07;;;8.97;;
9496;SDS011;4786;51.270;4.456;2024-02-21T05:33:50;16.40;;;9.83;;
9496;SDS011;4786;51.270;4.456;2024-02-21T05:36:16;14.50;;;9.10;;
9496;SDS011;4786;51.270;4.456;2024-02-21T05:38:43;13.63;;;9.03;;
9496;SDS011;4786;51.270;4.456;2024-02-21T05:41:09;14.93;;;9.13;;
9496;SDS011;4786;51.270;4.456;2024-02-21T05:43:35;16.47;;;8.90;;
9496;SDS011;4786;51.270;4.456;2024-02-21T05:46:01;18.33;;;9.53;;
9496;SDS011;4786;51.270;4.456;2024-02-21T05:48:26;15.90;;;9.33;;
9496;SDS011;4786;51.270;4.456;2024-02-21T05:50:53;15.10;;;9.47;;
9496;SDS011;4786;51.270;4.456;2024-02-21T05:53:19;14.07;;;8.53;;
9496;SDS011;4786;51.270;4.456;2024-02-21T05:55:45;14.77;;;9.40;;
9496;SDS011;4786;51.270;4.456;2024-02-21T05:58:11;17.13;;;9.60;;
9496;SDS011;4786;51.270;4.456;2024-02-21T06:00:38;17.83;;;10.20;;
9496;SDS011;4786;51.270;4.456;2024-02-21T06:03:05;18.50;;;10.30;;
9496;SDS011;4786;51.270;4.456;2024-02-21T06:05:36;16.43;;;10.30;;
9496;SDS011;4786;51.270;4.456;2024-02-21T06:08:03;19.57;;;10.60;;
9496;SDS011;4786;51.270;4.456;2024-02-21T06:10:29;18.87;;;10.93;;
9496;SDS011;4786;51.270;4.456;2024-02-21T06:12:55;15.03;;;10.90;;
9496;SDS011;4786;51.270;4.456;2024-02-21T06:15:21;16.63;;;10.90;;
9496;SDS011;4786;51.270;4.456;2024-02-21T06:17:47;24.20;;;10.73;;
9496;SDS011;4786;51.270;4.456;2024-02-21T06:20:13;22.37;;;10.73;;
9496;SDS011;4786;51.270;4.456;2024-02-21T06:22:41;19.03;;;10.90;;
9496;SDS011;4786;51.270;4.456;2024-02-21T06:25:07;17.23;;;11.67;;
9496;SDS011;4786;51.270;4.456;2024-02-21T06:27:33;20.07;;;11.40;;
9496;SDS011;4786;51.270;4.456;2024-02-21T06:29:59;18.60;;;10.97;;
9496;SDS011;4786;51.270;4.456;2024-02-21T06:32:25;18.60;;;11.30;;
9496;SDS011;4786;51.270;4.456;2024-02-21T06:34:51;18.50;;;11.00;;
9496;SDS011;4786;51.270;4.456;2024-02-21T06:37:17;24.30;;;11.00;;
9496;SDS011;4786;51.270;4.456;2024-02-21T06:39:44;20.67;;;11.47;;
9496;SDS011;4786;51.270;4.456;2024-02-21T06:42:10;16.67;;;10.87;;
9496;SDS011;4786;51.270;4.456;2024-02-21T06:44:36;21.23;;;11.33;;
9496;SDS011;4786;51.270;4.456;2024-02-21T06:47:05;18.60;;;11.20;;
9496;SDS011;4786;51.270;4.456;2024-02-21T06:49:32;21.67;;;11.83;;
9496;SDS011;4786;51.270;4.456;2024-02-21T06:51:58;21.17;;;11.17;;
9496;SDS011;4786;51.270;4.456;2024-02-21T06:54:24;18.73;;;10.73;;
9496;SDS011;4786;51.270;4.456;2024-02-21T06:56:50;17.93;;;10.53;;
9496;SDS011;4786;51.270;4.456;2024-02-21T06:59:15;19.57;;;10.87;;
9496;SDS011;4786;51.270;4.456;2024-02-21T07:01:45;21.00;;;10.27;;
9496;SDS011;4786;51.270;4.456;2024-02-21T07:04:13;19.00;;;10.50;;
9496;SDS011;4786;51.270;4.456;2024-02-21T07:06:39;14.80;;;10.37;;
9496;SDS011;4786;51.270;4.456;2024-02-21T07:09:04;17.00;;;11.17;;
9496;SDS011;4786;51.270;4.456;2024-02-21T07:11:30;16.77;;;11.20;;
9496;SDS011;4786;51.270;4.456;2024-02-21T07:13:56;22.97;;;10.67;;
9496;SDS011;4786;51.270;4.456;2024-02-21T07:16:22;21.53;;;9.97;;
9496;SDS011;4786;51.270;4.456;2024-02-21T07:18:48;16.13;;;10.03;;
9496;SDS011;4786;51.270;4.456;2024-02-21T07:21:14;16.53;;;10.23;;
9496;SDS011;4786;51.270;4.456;2024-02-21T07:23:41;15.00;;;10.90;;
9496;SDS011;4786;51.270;4.456;2024-02-21T07:26:07;18.10;;;10.10;;
9496;SDS011;4786;51.270;4.456;2024-02-21T07:28:33;15.77;;;9.97;;
9496;SDS011;4786;51.270;4.456;2024-02-21T07:30:59;16.93;;;9.67;;
9496;SDS011;4786;51.270;4.456;2024-02-21T07:33:25;16.83;;;10.23;;
9496;SDS011;4786;51.270;4.456;2024-02-21T07:35:50;13.20;;;9.47;;
9496;SDS011;4786;51.270;4.456;2024-02-21T07:38:16;13.60;;;10.17;;
9496;SDS011;4786;51.270;4.456;2024-02-21T07:40:46;15.37;;;10.50;;
9496;SDS011;4786;51.270;4.456;2024-02-21T07:43:12;14.47;;;9.70;;
9496;SDS011;4786;51.270;4.456;2024-02-21T07:45:38;13.83;;;10.40;;
9496;SDS011;4786;51.270;4.456;2024-02-21T07:48:05;18.20;;;10.33;;
9496;SDS011;4786;51.270;4.456;2024-02-21T07:50:31;12.30;;;8.93;;
9496;SDS011;4786;51.270;4.456;2024-02-21T07:52:57;18.17;;;10.03;;
9496;SDS011;4786;51.270;4.456;2024-02-21T07:55:23;14.67;;;9.50;;
9496;SDS011;4786;51.270;4.456;2024-02-21T07:57:49;14.30;;;9.67;;
9496;SDS011;4786;51.270;4.456;2024-02-21T08:00:15;14.33;;;9.30;;
9496;SDS011;4786;51.270;4.456;2024-02-21T08:02:45;14.63;;;9.37;;
9496;SDS011;4786;51.270;4.456;2024-02-21T08:05:11;15.90;;;9.07;;
9496;SDS011;4786;51.270;4.456;2024-02-21T08:07:40;10.77;;;8.30;;
9496;SDS011;4786;51.270;4.456;2024-02-21T08:10:06;11.57;;;8.50;;
9496;SDS011;4786;51.270;4.456;2024-02-21T08:12:52;17.70;;;9.47;;
9496;SDS011;4786;51.270;4.456;2024-02-21T08:15:18;11.90;;;9.23;;
9496;SDS011;4786;51.270;4.456;2024-02-21T08:17:43;10.30;;;8.40;;
9496;SDS011;4786;51.270;4.456;2024-02-21T08:20:10;10.80;;;8.67;;
9496;SDS011;4786;51.270;4.456;2024-02-21T08:22:39;13.07;;;8.87;;
9496;SDS011;4786;51.270;4.456;2024-02-21T08:25:05;15.20;;;9.47;;
9496;SDS011;4786;51.270;4.456;2024-02-21T08:27:31;11.13;;;8.73;;
9496;SDS011;4786;51.270;4.456;2024-02-21T08:29:58;10.90;;;8.73;;
9496;SDS011;4786;51.270;4.456;2024-02-21T08:32:24;11.43;;;9.10;;
9496;SDS011;4786;51.270;4.456;2024-02-21T08:34:50;12.30;;;8.93;;
9496;SDS011;4786;51.270;4.456;2024-02-21T08:37:16;11.07;;;8.97;;
9496;SDS011;4786;51.270;4.456;2024-02-21T08:39:42;9.30;;;8.40;;
9496;SDS011;4786;51.270;4.456;2024-02-21T08:42:07;13.67;;;9.40;;
9496;SDS011;4786;51.270;4.456;2024-02-21T08:44:33;10.63;;;9.17;;
9496;SDS011;4786;51.270;4.456;2024-02-21T08:46:59;13.23;;;9.63;;
9496;SDS011;4786;51.270;4.456;2024-02-21T08:49:28;14.13;;;9.67;;
9496;SDS011;4786;51.270;4.456;2024-02-21T08:51:54;10.23;;;9.13;;
9496;SDS011;4786;51.270;4.456;2024-02-21T08:54:20;11.33;;;8.70;;
9496;SDS011;4786;51.270;4.456;2024-02-21T08:56:46;10.93;;;9.30;;
9496;SDS011;4786;51.270;4.456;2024-02-21T08:59:11;13.93;;;9.80;;
9496;SDS011;4786;51.270;4.456;2024-02-21T09:01:37;15.40;;;10.40;;
9496;SDS011;4786;51.270;4.456;2024-02-21T09:04:03;15.53;;;11.03;;
9496;SDS011;4786;51.270;4.456;2024-02-21T09:06:30;15.93;;;11.00;;
9496;SDS011;4786;51.270;4.456;2024-02-21T09:08:58;17.63;;;11.87;;
9496;SDS011;4786;51.270;4.456;2024-02-21T09:11:24;17.90;;;11.63;;
9496;SDS011;4786;51.270;4.456;2024-02-21T09:13:50;15.73;;;11.97;;
9496;SDS011;4786;51.270;4.456;2024-02-21T09:16:16;16.13;;;10.83;;
9496;SDS011;4786;51.270;4.456;2024-02-21T09:18:41;16.43;;;11.60;;
9496;SDS011;4786;51.270;4.456;2024-02-21T09:21:07;14.83;;;10.93;;
9496;SDS011;4786;51.270;4.456;2024-02-21T09:23:33;14.47;;;10.60;;
9496;SDS011;4786;51.270;4.456;2024-02-21T09:25:59;13.83;;;10.40;;
9496;SDS011;4786;51.270;4.456;2024-02-21T09:28:29;10.70;;;9.43;;
9496;SDS011;4786;51.270;4.456;2024-02-21T09:30:55;15.93;;;10.33;;
9496;SDS011;4786;51.270;4.456;2024-02-21T09:33:21;19.87;;;9.90;;
9496;SDS011;4786;51.270;4.456;2024-02-21T09:35:46;12.90;;;9.13;;
9496;SDS011;4786;51.270;4.456;2024-02-21T09:38:13;14.63;;;9.07;;
9496;SDS011;4786;51.270;4.456;2024-02-21T09:40:39;13.97;;;8.13;;
9496;SDS011;4786;51.270;4.456;2024-02-21T09:43:07;14.83;;;8.07;;
9496;SDS011;4786;51.270;4.456;2024-02-21T09:45:33;11.83;;;7.93;;
9496;SDS011;4786;51.270;4.456;2024-02-21T09:51:03;11.77;;;7.13;;
9496;SDS011;4786;51.270;4.456;2024-02-21T09:53:31;9.00;;;7.00;;
9496;SDS011;4786;51.270;4.456;2024-02-21T09:55:58;10.37;;;7.17;;
9496;SDS011;4786;51.270;4.456;2024-02-21T09:58:24;10.67;;;6.20;;
9496;SDS011;4786;51.270;4.456;2024-02-21T10:00:52;10.27;;;6.40;;
9496;SDS011;4786;51.270;4.456;2024-02-21T10:03:18;12.13;;;6.60;;
9496;SDS011;4786;51.270;4.456;2024-02-21T10:05:47;8.70;;;6.10;;
9496;SDS011;4786;51.270;4.456;2024-02-21T10:08:15;8.80;;;5.90;;
9496;SDS011;4786;51.270;4.456;2024-02-21T10:10:42;9.63;;;6.00;;
9496;SDS011;4786;51.270;4.456;2024-02-21T10:13:24;14.63;;;6.10;;
9496;SDS011;4786;51.270;4.456;2024-02-21T10:18:47;7.23;;;5.60;;
9496;SDS011;4786;51.270;4.456;2024-02-21T10:21:12;8.73;;;5.50;;
9496;SDS011;4786;51.270;4.456;2024-02-21T10:23:41;5.87;;;5.03;;
9496;SDS011;4786;51.270;4.456;2024-02-21T10:26:11;7.17;;;5.17;;
9496;SDS011;4786;51.270;4.456;2024-02-21T10:28:38;8.10;;;5.33;;
9496;SDS011;4786;51.270;4.456;2024-02-21T10:31:09;7.03;;;5.27;;
9496;SDS011;4786;51.270;4.456;2024-02-21T10:33:55;12.73;;;5.37;;
9496;SDS011;4786;51.270;4.456;2024-02-21T10:36:22;10.27;;;5.70;;
9496;SDS011;4786;51.270;4.456;2024-02-21T10:38:50;8.83;;;5.13;;
9496;SDS011;4786;51.270;4.456;2024-02-21T10:41:16;9.17;;;5.10;;
9496;SDS011;4786;51.270;4.456;2024-02-21T10:43:46;10.03;;;5.10;;
9496;SDS011;4786;51.270;4.456;2024-02-21T10:46:18;8.27;;;5.40;;
9496;SDS011;4786;51.270;4.456;2024-02-21T10:48:45;8.13;;;5.33;;
9496;SDS011;4786;51.270;4.456;2024-02-21T10:51:15;8.57;;;5.40;;
9496;SDS011;4786;51.270;4.456;2024-02-21T10:53:50;9.73;;;5.57;;
9496;SDS011;4786;51.270;4.456;2024-02-21T10:56:39;20.30;;;6.13;;
9496;SDS011;4786;51.270;4.456;2024-02-21T10:59:06;8.17;;;5.10;;
9496;SDS011;4786;51.270;4.456;2024-02-21T11:01:33;8.90;;;5.50;;
9496;SDS011;4786;51.270;4.456;2024-02-21T11:04:04;11.13;;;5.37;;
9496;SDS011;4786;51.270;4.456;2024-02-21T11:06:34;10.43;;;5.10;;
9496;SDS011;4786;51.270;4.456;2024-02-21T11:09:05;10.60;;;4.93;;
9496;SDS011;4786;51.270;4.456;2024-02-21T11:11:39;9.83;;;5.27;;
9496;SDS011;4786;51.270;4.456;2024-02-21T11:14:19;8.07;;;4.93;;
9496;SDS011;4786;51.270;4.456;2024-02-21T11:16:47;9.87;;;5.50;;
9496;SDS011;4786;51.270;4.456;2024-02-21T11:21:47;10.60;;;5.60;;
9496;SDS011;4786;51.270;4.456;2024-02-21T11:24:13;12.60;;;6.40;;
9496;SDS011;4786;51.270;4.456;2024-02-21T11:26:50;8.60;;;5.77;;
9496;SDS011;4786;51.270;4.456;2024-02-21T11:29:15;10.10;;;5.40;;
9496;SDS011;4786;51.270;4.456;2024-02-21T11:31:48;14.27;;;5.90;;
9496;SDS011;4786;51.270;4.456;2024-02-21T11:34:17;9.73;;;5.50;;
9496;SDS011;4786;51.270;4.456;2024-02-21T11:36:50;8.70;;;5.53;;
9496;SDS011;4786;51.270;4.456;2024-02-21T11:39:24;11.87;;;6.23;;
9496;SDS011;4786;51.270;4.456;2024-02-21T11:44:29;11.90;;;6.60;;
9496;SDS011;4786;51.270;4.456;2024-02-21T11:46:56;11.87;;;7.10;;
9496;SDS011;4786;51.270;4.456;2024-02-21T11:49:21;9.70;;;6.30;;
9496;SDS011;4786;51.270;4.456;2024-02-21T11:51:57;10.23;;;6.47;;
9496;SDS011;4786;51.270;4.456;2024-02-21T11:54:26;8.00;;;5.80;;
9496;SDS011;4786;51.270;4.456;2024-02-21T11:56:52;13.43;;;6.73;;
9496;SDS011;4786;51.270;4.456;2024-02-21T11:59:18;10.23;;;6.57;;
9496;SDS011;4786;51.270;4.456;2024-02-21T12:01:44;11.90;;;7.13;;
9496;SDS011;4786;51.270;4.456;2024-02-21T12:04:10;14.43;;;6.50;;
9496;SDS011;4786;51.270;4.456;2024-02-21T12:06:36;10.23;;;6.40;;
9496;SDS011;4786;51.270;4.456;2024-02-21T12:09:02;11.70;;;6.37;;
9496;SDS011;4786;51.270;4.456;2024-02-21T12:11:28;13.60;;;6.80;;
9496;SDS011;4786;51.270;4.456;2024-02-21T12:14:00;11.70;;;5.83;;
9496;SDS011;4786;51.270;4.456;2024-02-21T12:16:30;8.57;;;5.80;;
9496;SDS011;4786;51.270;4.456;2024-02-21T12:18:58;16.00;;;6.20;;
9496;SDS011;4786;51.270;4.456;2024-02-21T12:21:32;12.10;;;6.20;;
9496;SDS011;4786;51.270;4.456;2024-02-21T12:24:11;11.73;;;6.10;;
9496;SDS011;4786;51.270;4.456;2024-02-21T12:26:38;10.30;;;5.93;;
9496;SDS011;4786;51.270;4.456;2024-02-21T12:29:23;14.33;;;6.30;;
9496;SDS011;4786;51.270;4.456;2024-02-21T12:31:50;10.50;;;5.93;;
9496;SDS011;4786;51.270;4.456;2024-02-21T12:34:16;11.63;;;6.10;;
9496;SDS011;4786;51.270;4.456;2024-02-21T12:36:46;9.53;;;5.57;;
9496;SDS011;4786;51.270;4.456;2024-02-21T12:39:12;8.63;;;5.63;;
9496;SDS011;4786;51.270;4.456;2024-02-21T12:41:40;16.27;;;6.10;;
9496;SDS011;4786;51.270;4.456;2024-02-21T12:44:08;11.53;;;5.30;;
9496;SDS011;4786;51.270;4.456;2024-02-21T12:46:34;8.90;;;5.20;;
9496;SDS011;4786;51.270;4.456;2024-02-21T12:49:03;10.20;;;5.10;;
9496;SDS011;4786;51.270;4.456;2024-02-21T12:51:33;12.03;;;4.70;;
9496;SDS011;4786;51.270;4.456;2024-02-21T12:54:00;13.57;;;5.27;;
9496;SDS011;4786;51.270;4.456;2024-02-21T12:56:27;10.20;;;4.30;;
9496;SDS011;4786;51.270;4.456;2024-02-21T12:58:54;8.37;;;4.07;;
9496;SDS011;4786;51.270;4.456;2024-02-21T13:01:21;8.17;;;4.37;;
9496;SDS011;4786;51.270;4.456;2024-02-21T13:03:47;6.57;;;3.77;;
9496;SDS011;4786;51.270;4.456;2024-02-21T13:06:13;7.87;;;3.90;;
9496;SDS011;4786;51.270;4.456;2024-02-21T13:08:40;8.37;;;4.40;;
9496;SDS011;4786;51.270;4.456;2024-02-21T13:11:06;9.33;;;3.80;;
9496;SDS011;4786;51.270;4.456;2024-02-21T13:13:32;8.63;;;4.13;;
9496;SDS011;4786;51.270;4.456;2024-02-21T13:15:58;7.73;;;3.80;;
9496;SDS011;4786;51.270;4.456;2024-02-21T13:18:25;9.43;;;3.90;;
9496;SDS011;4786;51.270;4.456;2024-02-21T13:20:51;8.23;;;4.47;;
9496;SDS011;4786;51.270;4.456;2024-02-21T13:23:17;9.37;;;4.17;;
9496;SDS011;4786;51.270;4.456;2024-02-21T13:25:42;9.87;;;4.07;;
9496;SDS011;4786;51.270;4.456;2024-02-21T13:28:10;6.90;;;3.80;;
9496;SDS011;4786;51.270;4.456;2024-02-21T13:30:36;9.07;;;4.03;;
9496;SDS011;4786;51.270;4.456;2024-02-21T13:33:02;8.17;;;4.23;;
9496;SDS011;4786;51.270;4.456;2024-02-21T13:35:28;7.30;;;4.03;;
9496;SDS011;4786;51.270;4.456;2024-02-21T13:37:54;8.13;;;4.37;;
9496;SDS011;4786;51.270;4.456;2024-02-21T13:40:19;7.17;;;4.13;;
9496;SDS011;4786;51.270;4.456;2024-02-21T13:42:45;9.87;;;4.50;;
9496;SDS011;4786;51.270;4.456;2024-02-21T13:45:12;8.70;;;4.10;;
9496;SDS011;4786;51.270;4.456;2024-02-21T13:47:38;9.63;;;4.27;;
9496;SDS011;4786;51.270;4.456;2024-02-21T13:50:04;8.13;;;4.87;;
9496;SDS011;4786;51.270;4.456;2024-02-21T13:52:34;6.93;;;4.50;;
9496;SDS011;4786;51.270;4.456;2024-02-21T13:55:00;7.73;;;4.63;;
9496;SDS011;4786;51.270;4.456;2024-02-21T13:57:25;9.30;;;4.70;;
9496;SDS011;4786;51.270;4.456;2024-02-21T13:59:51;10.53;;;5.00;;
9496;SDS011;4786;51.270;4.456;2024-02-21T14:02:17;8.27;;;5.20;;
9496;SDS011;4786;51.270;4.456;2024-02-21T14:04:43;9.73;;;5.50;;
9496;SDS011;4786;51.270;4.456;2024-02-21T14:07:09;8.60;;;5.43;;
9496;SDS011;4786;51.270;4.456;2024-02-21T14:09:34;10.63;;;5.60;;
9496;SDS011;4786;51.270;4.456;2024-02-21T14:12:00;9.03;;;5.83;;
9496;SDS011;4786;51.270;4.456;2024-02-21T14:14:26;10.83;;;5.60;;
9496;SDS011;4786;51.270;4.456;2024-02-21T14:16:52;13.60;;;6.47;;
9496;SDS011;4786;51.270;4.456;2024-02-21T14:19:18;11.27;;;6.33;;
9496;SDS011;4786;51.270;4.456;2024-02-21T14:21:44;11.33;;;6.30;;
9496;SDS011;4786;51.270;4.456;2024-02-21T14:24:11;10.23;;;6.40;;
9496;SDS011;4786;51.270;4.456;2024-02-21T14:26:37;11.60;;;7.20;;
9496;SDS011;4786;51.270;4.456;2024-02-21T14:29:04;14.20;;;6.90;;
9496;SDS011;4786;51.270;4.456;2024-02-21T14:31:31;12.30;;;7.20;;
9496;SDS011;4786;51.270;4.456;2024-02-21T14:33:57;13.07;;;7.50;;
9496;SDS011;4786;51.270;4.456;2024-02-21T14:36:23;12.27;;;7.10;;
9496;SDS011;4786;51.270;4.456;2024-02-21T14:38:51;14.23;;;7.30;;
9496;SDS011;4786;51.270;4.456;2024-02-21T14:41:17;11.67;;;7.47;;
9496;SDS011;4786;51.270;4.456;2024-02-21T14:43:44;11.60;;;7.17;;
9496;SDS011;4786;51.270;4.456;2024-02-21T14:46:09;10.40;;;7.47;;
9496;SDS011;4786;51.270;4.456;2024-02-21T14:48:37;10.37;;;6.97;;
9496;SDS011;4786;51.270;4.456;2024-02-21T14:51:03;13.50;;;7.10;;
9496;SDS011;4786;51.270;4.456;2024-02-21T14:53:29;10.93;;;7.23;;
9496;SDS011;4786;51.270;4.456;2024-02-21T14:55:55;11.07;;;7.60;;
9496;SDS011;4786;51.270;4.456;2024-02-21T14:58:22;10.13;;;7.03;;
9496;SDS011;4786;51.270;4.456;2024-02-21T15:00:49;11.03;;;7.23;;
9496;SDS011;4786;51.270;4.456;2024-02-21T15:03:18;14.83;;;7.40;;
9496;SDS011;4786;51.270;4.456;2024-02-21T15:05:47;12.30;;;7.90;;
9496;SDS011;4786;51.270;4.456;2024-02-21T15:08:13;12.17;;;7.40;;
9496;SDS011;4786;51.270;4.456;2024-02-21T15:10:42;10.50;;;7.17;;